sensor_id;sensor_type;location;lat;lon;timestamp;temperature;humidity
12901;DHT22;6518;50.930;5.344;2023-08-07T00:01:21;13.10;99.90
12901;DHT22;6518;50.930;5.344;2023-08-07T00:03:49;13.10;99.90
12901;DHT22;6518;50.930;5.344;2023-08-07T00:06:16;13.10;99.90
12901;DHT22;6518;50.930;5.344;2023-08-07T00:08:43;13.10;99.90
12901;DHT22;6518;50.930;5.344;2023-08-07T00:11:10;13.10;99.90
12901;DHT22;6518;50.930;5.344;2023-08-07T00:13:38;13.10;99.90
12901;DHT22;6518;50.930;5.344;2023-08-07T00:16:05;13.10;99.90
12901;DHT22;6518;50.930;5.344;2023-08-07T00:18:32;13.10;99.90
12901;DHT22;6518;50.930;5.344;2023-08-07T00:21:01;13.10;99.90
12901;DHT22;6518;50.930;5.344;2023-08-07T00:23:28;13.10;99.90
12901;DHT22;6518;50.930;5.344;2023-08-07T00:25:56;13.10;99.90
12901;DHT22;6518;50.930;5.344;2023-08-07T00:28:24;13.10;99.90
12901;DHT22;6518;50.930;5.344;2023-08-07T00:30:51;13.10;99.90
12901;DHT22;6518;50.930;5.344;2023-08-07T00:33:18;13.10;99.90
12901;DHT22;6518;50.930;5.344;2023-08-07T00:35:45;13.10;99.90
12901;DHT22;6518;50.930;5.344;2023-08-07T00:38:13;13.20;99.90
12901;DHT22;6518;50.930;5.344;2023-08-07T00:40:41;13.20;99.90
12901;DHT22;6518;50.930;5.344;2023-08-07T00:43:10;13.20;99.90
12901;DHT22;6518;50.930;5.344;2023-08-07T00:45:42;13.20;99.90
12901;DHT22;6518;50.930;5.344;2023-08-07T00:48:11;13.20;99.90
12901;DHT22;6518;50.930;5.344;2023-08-07T00:50:39;13.20;99.90
12901;DHT22;6518;50.930;5.344;2023-08-07T00:53:06;13.20;99.90
12901;DHT22;6518;50.930;5.344;2023-08-07T00:55:35;13.20;99.90
12901;DHT22;6518;50.930;5.344;2023-08-07T00:58:02;13.10;99.90
12901;DHT22;6518;50.930;5.344;2023-08-07T01:00:30;13.10;99.90
12901;DHT22;6518;50.930;5.344;2023-08-07T01:02:57;13.10;99.90
12901;DHT22;6518;50.930;5.344;2023-08-07T01:05:26;13.10;99.90
12901;DHT22;6518;50.930;5.344;2023-08-07T01:07:53;13.10;99.90
12901;DHT22;6518;50.930;5.344;2023-08-07T01:10:27;13.10;99.90
12901;DHT22;6518;50.930;5.344;2023-08-07T01:13:02;13.10;99.90
12901;DHT22;6518;50.930;5.344;2023-08-07T01:15:33;13.10;99.90
12901;DHT22;6518;50.930;5.344;2023-08-07T01:18:01;13.70;99.90
12901;DHT22;6518;50.930;5.344;2023-08-07T01:20:30;13.10;99.90
12901;DHT22;6518;50.930;5.344;2023-08-07T01:22:59;13.10;99.90
12901;DHT22;6518;50.930;5.344;2023-08-07T01:25:26;13.10;99.90
12901;DHT22;6518;50.930;5.344;2023-08-07T01:28:01;13.10;99.90
12901;DHT22;6518;50.930;5.344;2023-08-07T01:30:33;13.10;99.90
12901;DHT22;6518;50.930;5.344;2023-08-07T01:33:09;13.10;99.90
12901;DHT22;6518;50.930;5.344;2023-08-07T01:35:40;13.10;99.90
12901;DHT22;6518;50.930;5.344;2023-08-07T01:38:11;13.00;99.90
12901;DHT22;6518;50.930;5.344;2023-08-07T01:40:39;13.00;99.90
12901;DHT22;6518;50.930;5.344;2023-08-07T01:43:07;13.00;99.90
12901;DHT22;6518;50.930;5.344;2023-08-07T01:45:34;13.10;99.90
12901;DHT22;6518;50.930;5.344;2023-08-07T01:48:01;13.10;99.90
12901;DHT22;6518;50.930;5.344;2023-08-07T01:50:29;13.10;99.90
12901;DHT22;6518;50.930;5.344;2023-08-07T01:52:56;13.10;99.90
12901;DHT22;6518;50.930;5.344;2023-08-07T01:55:24;13.00;99.90
12901;DHT22;6518;50.930;5.344;2023-08-07T01:57:52;13.00;99.90
12901;DHT22;6518;50.930;5.344;2023-08-07T02:00:19;13.00;99.90
12901;DHT22;6518;50.930;5.344;2023-08-07T02:02:46;13.00;99.90
12901;DHT22;6518;50.930;5.344;2023-08-07T02:05:13;13.00;99.90
12901;DHT22;6518;50.930;5.344;2023-08-07T02:07:41;13.00;99.90
12901;DHT22;6518;50.930;5.344;2023-08-07T02:10:09;13.00;99.90
12901;DHT22;6518;50.930;5.344;2023-08-07T02:12:37;13.00;99.90
12901;DHT22;6518;50.930;5.344;2023-08-07T02:15:05;13.00;99.90
12901;DHT22;6518;50.930;5.344;2023-08-07T02:17:32;13.00;99.90
12901;DHT22;6518;50.930;5.344;2023-08-07T02:20:01;13.00;99.90
12901;DHT22;6518;50.930;5.344;2023-08-07T02:22:28;13.10;99.90
12901;DHT22;6518;50.930;5.344;2023-08-07T02:24:56;13.00;99.90
12901;DHT22;6518;50.930;5.344;2023-08-07T02:27:23;13.00;99.90
12901;DHT22;6518;50.930;5.344;2023-08-07T02:29:52;13.10;99.90
12901;DHT22;6518;50.930;5.344;2023-08-07T02:32:19;13.10;99.90
12901;DHT22;6518;50.930;5.344;2023-08-07T02:34:47;13.10;99.90
12901;DHT22;6518;50.930;5.344;2023-08-07T02:37:14;13.10;99.90
12901;DHT22;6518;50.930;5.344;2023-08-07T02:39:41;13.00;99.90
12901;DHT22;6518;50.930;5.344;2023-08-07T02:42:08;13.00;99.90
12901;DHT22;6518;50.930;5.344;2023-08-07T02:44:35;13.00;99.90
12901;DHT22;6518;50.930;5.344;2023-08-07T02:47:04;13.00;99.90
12901;DHT22;6518;50.930;5.344;2023-08-07T02:49:31;13.00;99.90
12901;DHT22;6518;50.930;5.344;2023-08-07T02:51:58;13.10;99.90
12901;DHT22;6518;50.930;5.344;2023-08-07T02:54:25;13.10;99.90
12901;DHT22;6518;50.930;5.344;2023-08-07T02:56:52;13.10;99.90
12901;DHT22;6518;50.930;5.344;2023-08-07T02:59:19;13.00;99.90
12901;DHT22;6518;50.930;5.344;2023-08-07T03:01:46;13.10;99.90
12901;DHT22;6518;50.930;5.344;2023-08-07T03:04:14;13.10;99.90
12901;DHT22;6518;50.930;5.344;2023-08-07T03:06:41;13.00;99.90
12901;DHT22;6518;50.930;5.344;2023-08-07T03:09:08;13.00;99.90
12901;DHT22;6518;50.930;5.344;2023-08-07T03:11:36;13.00;99.90
12901;DHT22;6518;50.930;5.344;2023-08-07T03:14:03;13.00;99.90
12901;DHT22;6518;50.930;5.344;2023-08-07T03:16:30;13.00;99.90
12901;DHT22;6518;50.930;5.344;2023-08-07T03:18:57;13.00;99.90
12901;DHT22;6518;50.930;5.344;2023-08-07T03:21:26;13.00;99.90
12901;DHT22;6518;50.930;5.344;2023-08-07T03:23:53;13.00;99.90
12901;DHT22;6518;50.930;5.344;2023-08-07T03:26:20;12.90;99.90
12901;DHT22;6518;50.930;5.344;2023-08-07T03:28:47;12.90;99.90
12901;DHT22;6518;50.930;5.344;2023-08-07T03:31:14;12.90;99.90
12901;DHT22;6518;50.930;5.344;2023-08-07T03:33:41;12.90;99.90
12901;DHT22;6518;50.930;5.344;2023-08-07T03:36:08;12.80;99.90
12901;DHT22;6518;50.930;5.344;2023-08-07T03:38:37;12.80;99.90
12901;DHT22;6518;50.930;5.344;2023-08-07T03:41:04;12.80;99.90
12901;DHT22;6518;50.930;5.344;2023-08-07T03:43:31;12.80;99.90
12901;DHT22;6518;50.930;5.344;2023-08-07T03:45:58;12.70;99.90
12901;DHT22;6518;50.930;5.344;2023-08-07T03:48:25;12.70;99.90
12901;DHT22;6518;50.930;5.344;2023-08-07T03:50:52;12.70;99.90
12901;DHT22;6518;50.930;5.344;2023-08-07T03:53:19;12.70;99.90
12901;DHT22;6518;50.930;5.344;2023-08-07T03:55:51;12.60;99.90
12901;DHT22;6518;50.930;5.344;2023-08-07T03:58:18;12.60;99.90
12901;DHT22;6518;50.930;5.344;2023-08-07T04:00:45;12.60;99.90
12901;DHT22;6518;50.930;5.344;2023-08-07T04:03:12;12.60;99.90
12901;DHT22;6518;50.930;5.344;2023-08-07T04:05:39;12.60;99.90
12901;DHT22;6518;50.930;5.344;2023-08-07T04:08:06;12.60;99.90
12901;DHT22;6518;50.930;5.344;2023-08-07T04:10:33;12.60;99.90
12901;DHT22;6518;50.930;5.344;2023-08-07T04:13:01;12.60;99.90
12901;DHT22;6518;50.930;5.344;2023-08-07T04:15:29;12.60;99.90
12901;DHT22;6518;50.930;5.344;2023-08-07T04:17:56;12.60;99.90
12901;DHT22;6518;50.930;5.344;2023-08-07T04:20:23;12.50;99.90
12901;DHT22;6518;50.930;5.344;2023-08-07T04:22:50;12.50;99.90
12901;DHT22;6518;50.930;5.344;2023-08-07T04:25:17;12.50;99.90
12901;DHT22;6518;50.930;5.344;2023-08-07T04:27:44;12.50;99.90
12901;DHT22;6518;50.930;5.344;2023-08-07T04:30:13;12.50;99.90
12901;DHT22;6518;50.930;5.344;2023-08-07T04:32:40;12.50;99.90
12901;DHT22;6518;50.930;5.344;2023-08-07T04:35:08;12.50;99.90
12901;DHT22;6518;50.930;5.344;2023-08-07T04:37:35;12.50;99.90
12901;DHT22;6518;50.930;5.344;2023-08-07T04:40:03;12.60;99.90
12901;DHT22;6518;50.930;5.344;2023-08-07T04:42:31;12.60;99.90
12901;DHT22;6518;50.930;5.344;2023-08-07T04:44:58;12.60;99.90
12901;DHT22;6518;50.930;5.344;2023-08-07T04:47:28;12.50;99.90
12901;DHT22;6518;50.930;5.344;2023-08-07T04:49:55;12.60;99.90
12901;DHT22;6518;50.930;5.344;2023-08-07T04:52:22;12.60;99.90
12901;DHT22;6518;50.930;5.344;2023-08-07T04:54:49;12.60;99.90
12901;DHT22;6518;50.930;5.344;2023-08-07T04:57:16;12.60;99.90
12901;DHT22;6518;50.930;5.344;2023-08-07T04:59:43;12.60;99.90
12901;DHT22;6518;50.930;5.344;2023-08-07T05:02:10;12.60;99.90
12901;DHT22;6518;50.930;5.344;2023-08-07T05:04:40;12.60;99.90
12901;DHT22;6518;50.930;5.344;2023-08-07T05:07:06;12.60;99.90
12901;DHT22;6518;50.930;5.344;2023-08-07T05:09:34;12.60;99.90
12901;DHT22;6518;50.930;5.344;2023-08-07T05:12:01;12.60;99.90
12901;DHT22;6518;50.930;5.344;2023-08-07T05:14:29;12.70;99.90
12901;DHT22;6518;50.930;5.344;2023-08-07T05:16:56;12.70;99.90
12901;DHT22;6518;50.930;5.344;2023-08-07T05:19:23;12.70;99.90
12901;DHT22;6518;50.930;5.344;2023-08-07T05:21:51;12.80;99.90
12901;DHT22;6518;50.930;5.344;2023-08-07T05:24:18;12.80;99.90
12901;DHT22;6518;50.930;5.344;2023-08-07T05:26:45;12.80;99.90
12901;DHT22;6518;50.930;5.344;2023-08-07T05:29:12;12.90;99.90
12901;DHT22;6518;50.930;5.344;2023-08-07T05:31:39;12.90;99.90
12901;DHT22;6518;50.930;5.344;2023-08-07T05:34:06;12.90;99.90
12901;DHT22;6518;50.930;5.344;2023-08-07T05:36:33;12.90;99.90
12901;DHT22;6518;50.930;5.344;2023-08-07T05:39:02;12.90;99.90
12901;DHT22;6518;50.930;5.344;2023-08-07T05:41:30;13.00;99.90
12901;DHT22;6518;50.930;5.344;2023-08-07T05:43:57;12.90;99.90
12901;DHT22;6518;50.930;5.344;2023-08-07T05:46:24;13.00;99.90
12901;DHT22;6518;50.930;5.344;2023-08-07T05:48:51;13.00;99.90
12901;DHT22;6518;50.930;5.344;2023-08-07T05:51:18;13.00;99.90
12901;DHT22;6518;50.930;5.344;2023-08-07T05:53:45;13.10;99.90
12901;DHT22;6518;50.930;5.344;2023-08-07T05:56:14;13.10;99.90
12901;DHT22;6518;50.930;5.344;2023-08-07T05:58:42;13.10;99.90
12901;DHT22;6518;50.930;5.344;2023-08-07T06:01:09;13.10;99.90
12901;DHT22;6518;50.930;5.344;2023-08-07T06:03:36;13.10;99.90
12901;DHT22;6518;50.930;5.344;2023-08-07T06:06:04;13.20;99.90
12901;DHT22;6518;50.930;5.344;2023-08-07T06:08:31;13.20;99.90
12901;DHT22;6518;50.930;5.344;2023-08-07T06:10:58;13.30;99.90
12901;DHT22;6518;50.930;5.344;2023-08-07T06:13:28;13.30;99.90
12901;DHT22;6518;50.930;5.344;2023-08-07T06:15:55;13.40;99.90
12901;DHT22;6518;50.930;5.344;2023-08-07T06:18:22;13.40;99.90
12901;DHT22;6518;50.930;5.344;2023-08-07T06:20:49;13.50;99.90
12901;DHT22;6518;50.930;5.344;2023-08-07T06:23:16;13.50;99.90
12901;DHT22;6518;50.930;5.344;2023-08-07T06:25:43;13.60;99.90
12901;DHT22;6518;50.930;5.344;2023-08-07T06:28:10;13.60;99.90
12901;DHT22;6518;50.930;5.344;2023-08-07T06:30:38;13.70;99.90
12901;DHT22;6518;50.930;5.344;2023-08-07T06:33:05;13.70;99.90
12901;DHT22;6518;50.930;5.344;2023-08-07T06:35:37;13.80;99.90
12901;DHT22;6518;50.930;5.344;2023-08-07T06:38:04;13.90;99.90
12901;DHT22;6518;50.930;5.344;2023-08-07T06:40:31;13.90;99.90
12901;DHT22;6518;50.930;5.344;2023-08-07T06:42:58;14.00;99.90
12901;DHT22;6518;50.930;5.344;2023-08-07T06:45:25;14.00;99.90
12901;DHT22;6518;50.930;5.344;2023-08-07T06:47:53;14.10;99.90
12901;DHT22;6518;50.930;5.344;2023-08-07T06:50:21;14.10;99.90
12901;DHT22;6518;50.930;5.344;2023-08-07T06:52:48;14.20;99.90
12901;DHT22;6518;50.930;5.344;2023-08-07T06:55:15;14.20;99.90
12901;DHT22;6518;50.930;5.344;2023-08-07T06:57:42;14.30;99.90
12901;DHT22;6518;50.930;5.344;2023-08-07T07:00:10;14.40;99.90
12901;DHT22;6518;50.930;5.344;2023-08-07T07:02:37;14.60;99.90
12901;DHT22;6518;50.930;5.344;2023-08-07T07:05:07;14.70;99.90
12901;DHT22;6518;50.930;5.344;2023-08-07T07:07:34;14.70;99.90
12901;DHT22;6518;50.930;5.344;2023-08-07T07:10:02;14.70;99.90
12901;DHT22;6518;50.930;5.344;2023-08-07T07:12:29;14.70;99.90
12901;DHT22;6518;50.930;5.344;2023-08-07T07:14:56;14.70;99.90
12901;DHT22;6518;50.930;5.344;2023-08-07T07:17:23;14.70;99.90
12901;DHT22;6518;50.930;5.344;2023-08-07T07:19:50;14.80;99.90
12901;DHT22;6518;50.930;5.344;2023-08-07T07:22:19;14.80;99.90
12901;DHT22;6518;50.930;5.344;2023-08-07T07:24:46;14.80;99.90
12901;DHT22;6518;50.930;5.344;2023-08-07T07:27:13;14.80;99.90
12901;DHT22;6518;50.930;5.344;2023-08-07T07:29:40;14.90;99.90
12901;DHT22;6518;50.930;5.344;2023-08-07T07:32:08;14.90;99.90
12901;DHT22;6518;50.930;5.344;2023-08-07T07:34:35;15.00;99.90
12901;DHT22;6518;50.930;5.344;2023-08-07T07:37:02;15.20;99.90
12901;DHT22;6518;50.930;5.344;2023-08-07T07:39:30;15.40;99.90
12901;DHT22;6518;50.930;5.344;2023-08-07T07:41:58;15.50;99.90
12901;DHT22;6518;50.930;5.344;2023-08-07T07:44:25;15.70;99.90
12901;DHT22;6518;50.930;5.344;2023-08-07T07:46:52;15.90;99.90
12901;DHT22;6518;50.930;5.344;2023-08-07T07:49:19;16.10;99.90
12901;DHT22;6518;50.930;5.344;2023-08-07T07:51:46;16.30;99.90
12901;DHT22;6518;50.930;5.344;2023-08-07T07:54:14;16.40;99.90
12901;DHT22;6518;50.930;5.344;2023-08-07T07:56:43;16.50;99.90
12901;DHT22;6518;50.930;5.344;2023-08-07T07:59:11;16.50;99.40
12901;DHT22;6518;50.930;5.344;2023-08-07T08:01:38;16.40;99.80
12901;DHT22;6518;50.930;5.344;2023-08-07T08:04:06;16.30;99.50
12901;DHT22;6518;50.930;5.344;2023-08-07T08:06:35;16.30;99.50
12901;DHT22;6518;50.930;5.344;2023-08-07T08:09:02;16.20;99.60
12901;DHT22;6518;50.930;5.344;2023-08-07T08:11:30;16.20;99.90
12901;DHT22;6518;50.930;5.344;2023-08-07T08:13:58;16.20;99.30
12901;DHT22;6518;50.930;5.344;2023-08-07T08:16:25;16.20;99.10
12901;DHT22;6518;50.930;5.344;2023-08-07T08:18:52;16.30;99.50
12901;DHT22;6518;50.930;5.344;2023-08-07T08:21:19;16.30;99.00
12901;DHT22;6518;50.930;5.344;2023-08-07T08:23:46;16.30;98.90
12901;DHT22;6518;50.930;5.344;2023-08-07T08:26:13;16.30;98.20
12901;DHT22;6518;50.930;5.344;2023-08-07T08:28:40;16.20;98.00
12901;DHT22;6518;50.930;5.344;2023-08-07T08:31:09;16.20;97.90
12901;DHT22;6518;50.930;5.344;2023-08-07T08:33:36;16.20;98.10
12901;DHT22;6518;50.930;5.344;2023-08-07T08:36:03;16.20;98.20
12901;DHT22;6518;50.930;5.344;2023-08-07T08:38:30;16.20;98.50
12901;DHT22;6518;50.930;5.344;2023-08-07T08:41:02;16.30;98.30
12901;DHT22;6518;50.930;5.344;2023-08-07T08:43:34;16.40;97.90
12901;DHT22;6518;50.930;5.344;2023-08-07T08:46:01;16.60;97.40
12901;DHT22;6518;50.930;5.344;2023-08-07T08:48:34;16.80;96.80
12901;DHT22;6518;50.930;5.344;2023-08-07T08:51:02;17.00;96.20
12901;DHT22;6518;50.930;5.344;2023-08-07T08:53:31;17.00;95.70
12901;DHT22;6518;50.930;5.344;2023-08-07T08:55:59;17.10;95.20
12901;DHT22;6518;50.930;5.344;2023-08-07T08:58:27;17.20;94.10
12901;DHT22;6518;50.930;5.344;2023-08-07T09:00:55;17.30;93.10
12901;DHT22;6518;50.930;5.344;2023-08-07T09:03:22;17.50;92.20
12901;DHT22;6518;50.930;5.344;2023-08-07T09:05:53;17.50;91.80
12901;DHT22;6518;50.930;5.344;2023-08-07T09:08:21;17.40;92.00
12901;DHT22;6518;50.930;5.344;2023-08-07T09:10:49;17.30;92.60
12901;DHT22;6518;50.930;5.344;2023-08-07T09:13:18;17.30;92.80
12901;DHT22;6518;50.930;5.344;2023-08-07T09:15:48;17.30;92.90
12901;DHT22;6518;50.930;5.344;2023-08-07T09:18:17;17.20;92.80
12901;DHT22;6518;50.930;5.344;2023-08-07T09:20:44;17.20;92.70
12901;DHT22;6518;50.930;5.344;2023-08-07T09:23:12;17.20;92.90
12901;DHT22;6518;50.930;5.344;2023-08-07T09:25:41;17.20;92.50
12901;DHT22;6518;50.930;5.344;2023-08-07T09:28:09;17.20;92.50
12901;DHT22;6518;50.930;5.344;2023-08-07T09:30:36;17.10;92.50
12901;DHT22;6518;50.930;5.344;2023-08-07T09:33:04;17.10;93.10
12901;DHT22;6518;50.930;5.344;2023-08-07T09:35:32;17.10;93.30
12901;DHT22;6518;50.930;5.344;2023-08-07T09:37:59;17.00;92.60
12901;DHT22;6518;50.930;5.344;2023-08-07T09:40:27;17.00;92.60
12901;DHT22;6518;50.930;5.344;2023-08-07T09:42:56;17.00;92.60
12901;DHT22;6518;50.930;5.344;2023-08-07T09:45:24;17.20;92.90
12901;DHT22;6518;50.930;5.344;2023-08-07T09:47:58;17.40;91.70
12901;DHT22;6518;50.930;5.344;2023-08-07T09:50:26;17.60;91.10
12901;DHT22;6518;50.930;5.344;2023-08-07T09:52:53;17.80;90.70
12901;DHT22;6518;50.930;5.344;2023-08-07T09:55:21;17.70;89.80
12901;DHT22;6518;50.930;5.344;2023-08-07T09:57:50;17.70;90.40
12901;DHT22;6518;50.930;5.344;2023-08-07T10:00:18;17.60;90.80
12901;DHT22;6518;50.930;5.344;2023-08-07T10:02:47;17.60;90.90
12901;DHT22;6518;50.930;5.344;2023-08-07T10:05:14;17.50;91.00
12901;DHT22;6518;50.930;5.344;2023-08-07T10:07:41;17.40;91.10
12901;DHT22;6518;50.930;5.344;2023-08-07T10:10:09;17.40;91.40
12901;DHT22;6518;50.930;5.344;2023-08-07T10:12:36;17.40;91.70
12901;DHT22;6518;50.930;5.344;2023-08-07T10:15:06;17.60;90.90
12901;DHT22;6518;50.930;5.344;2023-08-07T10:17:33;17.70;90.10
12901;DHT22;6518;50.930;5.344;2023-08-07T10:20:00;17.80;88.00
12901;DHT22;6518;50.930;5.344;2023-08-07T10:22:30;17.70;86.70
12901;DHT22;6518;50.930;5.344;2023-08-07T10:25:01;18.10;85.30
12901;DHT22;6518;50.930;5.344;2023-08-07T10:27:30;18.10;85.90
12901;DHT22;6518;50.930;5.344;2023-08-07T10:30:01;18.30;85.40
12901;DHT22;6518;50.930;5.344;2023-08-07T10:32:30;18.60;84.70
12901;DHT22;6518;50.930;5.344;2023-08-07T10:34:58;18.80;84.50
12901;DHT22;6518;50.930;5.344;2023-08-07T10:37:42;18.80;82.40
12901;DHT22;6518;50.930;5.344;2023-08-07T10:40:11;18.80;79.90
12901;DHT22;6518;50.930;5.344;2023-08-07T10:42:57;18.70;80.40
12901;DHT22;6518;50.930;5.344;2023-08-07T10:45:26;18.70;81.30
12901;DHT22;6518;50.930;5.344;2023-08-07T10:48:06;18.80;79.80
12901;DHT22;6518;50.930;5.344;2023-08-07T10:50:34;18.70;77.60
12901;DHT22;6518;50.930;5.344;2023-08-07T10:53:02;18.70;76.30
12901;DHT22;6518;50.930;5.344;2023-08-07T10:55:43;18.50;76.80
12901;DHT22;6518;50.930;5.344;2023-08-07T10:58:24;18.50;77.50
12901;DHT22;6518;50.930;5.344;2023-08-07T11:00:53;18.70;77.30
12901;DHT22;6518;50.930;5.344;2023-08-07T11:03:42;18.80;77.40
12901;DHT22;6518;50.930;5.344;2023-08-07T11:06:10;18.80;77.10
12901;DHT22;6518;50.930;5.344;2023-08-07T11:08:37;18.80;77.90
12901;DHT22;6518;50.930;5.344;2023-08-07T11:11:05;18.70;77.40
12901;DHT22;6518;50.930;5.344;2023-08-07T11:13:33;18.70;76.80
12901;DHT22;6518;50.930;5.344;2023-08-07T11:16:00;18.70;77.00
12901;DHT22;6518;50.930;5.344;2023-08-07T11:18:27;18.70;76.60
12901;DHT22;6518;50.930;5.344;2023-08-07T11:20:56;18.60;77.00
12901;DHT22;6518;50.930;5.344;2023-08-07T11:23:23;18.70;77.60
12901;DHT22;6518;50.930;5.344;2023-08-07T11:25:51;18.80;77.10
12901;DHT22;6518;50.930;5.344;2023-08-07T11:28:18;18.90;76.40
12901;DHT22;6518;50.930;5.344;2023-08-07T11:30:48;19.10;76.70
12901;DHT22;6518;50.930;5.344;2023-08-07T11:33:17;19.30;75.40
12901;DHT22;6518;50.930;5.344;2023-08-07T11:35:45;19.30;74.90
12901;DHT22;6518;50.930;5.344;2023-08-07T11:38:15;19.20;73.20
12901;DHT22;6518;50.930;5.344;2023-08-07T11:40:42;19.10;74.70
12901;DHT22;6518;50.930;5.344;2023-08-07T11:43:09;19.00;74.30
12901;DHT22;6518;50.930;5.344;2023-08-07T11:45:36;18.80;75.90
12901;DHT22;6518;50.930;5.344;2023-08-07T11:48:03;18.70;73.30
12901;DHT22;6518;50.930;5.344;2023-08-07T11:50:30;18.80;74.50
12901;DHT22;6518;50.930;5.344;2023-08-07T11:52:58;18.90;74.30
12901;DHT22;6518;50.930;5.344;2023-08-07T11:55:29;18.90;72.00
12901;DHT22;6518;50.930;5.344;2023-08-07T11:57:56;19.00;86.50
12901;DHT22;6518;50.930;5.344;2023-08-07T12:00:25;19.10;69.60
12901;DHT22;6518;50.930;5.344;2023-08-07T12:02:53;19.30;70.50
12901;DHT22;6518;50.930;5.344;2023-08-07T12:05:21;19.40;70.30
12901;DHT22;6518;50.930;5.344;2023-08-07T12:07:49;19.40;70.90
12901;DHT22;6518;50.930;5.344;2023-08-07T12:10:16;19.50;70.50
12901;DHT22;6518;50.930;5.344;2023-08-07T12:12:45;19.70;71.20
12901;DHT22;6518;50.930;5.344;2023-08-07T12:15:12;19.70;70.70
12901;DHT22;6518;50.930;5.344;2023-08-07T12:17:39;19.80;70.60
12901;DHT22;6518;50.930;5.344;2023-08-07T12:20:06;19.80;68.10
12901;DHT22;6518;50.930;5.344;2023-08-07T12:22:36;19.80;67.40
12901;DHT22;6518;50.930;5.344;2023-08-07T12:25:03;19.60;67.20
12901;DHT22;6518;50.930;5.344;2023-08-07T12:27:30;19.50;67.30
12901;DHT22;6518;50.930;5.344;2023-08-07T12:29:59;19.50;68.20
12901;DHT22;6518;50.930;5.344;2023-08-07T12:32:27;19.50;68.80
12901;DHT22;6518;50.930;5.344;2023-08-07T12:34:53;19.70;69.30
12901;DHT22;6518;50.930;5.344;2023-08-07T12:37:20;19.70;69.60
12901;DHT22;6518;50.930;5.344;2023-08-07T12:39:48;19.60;70.10
12901;DHT22;6518;50.930;5.344;2023-08-07T12:42:15;19.70;70.80
12901;DHT22;6518;50.930;5.344;2023-08-07T12:44:42;19.70;68.80
12901;DHT22;6518;50.930;5.344;2023-08-07T12:47:12;19.70;69.10
12901;DHT22;6518;50.930;5.344;2023-08-07T12:49:39;19.90;68.20
12901;DHT22;6518;50.930;5.344;2023-08-07T12:52:07;20.00;68.70
12901;DHT22;6518;50.930;5.344;2023-08-07T12:54:34;20.00;67.50
12901;DHT22;6518;50.930;5.344;2023-08-07T12:57:01;19.90;66.80
12901;DHT22;6518;50.930;5.344;2023-08-07T12:59:28;20.00;67.10
12901;DHT22;6518;50.930;5.344;2023-08-07T13:01:56;20.00;66.90
12901;DHT22;6518;50.930;5.344;2023-08-07T13:04:26;20.10;67.20
12901;DHT22;6518;50.930;5.344;2023-08-07T13:06:53;20.20;66.90
12901;DHT22;6518;50.930;5.344;2023-08-07T13:09:20;20.20;66.00
12901;DHT22;6518;50.930;5.344;2023-08-07T13:11:47;20.20;66.90
12901;DHT22;6518;50.930;5.344;2023-08-07T13:14:14;20.30;66.30
12901;DHT22;6518;50.930;5.344;2023-08-07T13:16:41;20.40;64.20
12901;DHT22;6518;50.930;5.344;2023-08-07T13:19:08;20.50;64.70
12901;DHT22;6518;50.930;5.344;2023-08-07T13:21:36;20.60;64.50
12901;DHT22;6518;50.930;5.344;2023-08-07T13:24:04;20.70;63.80
12901;DHT22;6518;50.930;5.344;2023-08-07T13:26:31;20.60;64.30
12901;DHT22;6518;50.930;5.344;2023-08-07T13:28:58;20.60;64.70
12901;DHT22;6518;50.930;5.344;2023-08-07T13:31:26;20.70;63.70
12901;DHT22;6518;50.930;5.344;2023-08-07T13:33:53;20.70;63.70
12901;DHT22;6518;50.930;5.344;2023-08-07T13:36:20;20.70;63.70
12901;DHT22;6518;50.930;5.344;2023-08-07T13:38:49;20.40;65.40
12901;DHT22;6518;50.930;5.344;2023-08-07T13:41:17;20.30;64.60
12901;DHT22;6518;50.930;5.344;2023-08-07T13:43:44;20.20;65.20
12901;DHT22;6518;50.930;5.344;2023-08-07T13:46:11;20.10;65.20
12901;DHT22;6518;50.930;5.344;2023-08-07T13:48:38;20.10;65.80
12901;DHT22;6518;50.930;5.344;2023-08-07T13:51:05;20.20;65.70
12901;DHT22;6518;50.930;5.344;2023-08-07T13:53:33;20.30;64.80
12901;DHT22;6518;50.930;5.344;2023-08-07T13:56:02;20.40;64.60
12901;DHT22;6518;50.930;5.344;2023-08-07T13:58:29;20.40;64.60
12901;DHT22;6518;50.930;5.344;2023-08-07T14:00:56;20.40;65.00
12901;DHT22;6518;50.930;5.344;2023-08-07T14:03:23;20.40;64.10
12901;DHT22;6518;50.930;5.344;2023-08-07T14:05:50;20.20;64.80
12901;DHT22;6518;50.930;5.344;2023-08-07T14:08:17;20.10;65.80
12901;DHT22;6518;50.930;5.344;2023-08-07T14:10:44;20.00;66.20
12901;DHT22;6518;50.930;5.344;2023-08-07T14:13:12;20.10;66.70
12901;DHT22;6518;50.930;5.344;2023-08-07T14:15:39;20.30;66.00
12901;DHT22;6518;50.930;5.344;2023-08-07T14:18:06;20.30;65.30
12901;DHT22;6518;50.930;5.344;2023-08-07T14:20:34;20.10;65.70
12901;DHT22;6518;50.930;5.344;2023-08-07T14:23:01;20.20;66.40
12901;DHT22;6518;50.930;5.344;2023-08-07T14:25:28;20.30;66.60
12901;DHT22;6518;50.930;5.344;2023-08-07T14:27:55;20.40;67.30
12901;DHT22;6518;50.930;5.344;2023-08-07T14:30:23;20.30;66.30
12901;DHT22;6518;50.930;5.344;2023-08-07T14:32:50;20.10;67.20
12901;DHT22;6518;50.930;5.344;2023-08-07T14:35:17;20.10;67.60
12901;DHT22;6518;50.930;5.344;2023-08-07T14:37:44;20.20;67.00
12901;DHT22;6518;50.930;5.344;2023-08-07T14:40:13;20.20;67.00
12901;DHT22;6518;50.930;5.344;2023-08-07T14:42:40;20.10;66.90
12901;DHT22;6518;50.930;5.344;2023-08-07T14:45:08;20.00;67.70
12901;DHT22;6518;50.930;5.344;2023-08-07T14:47:37;20.00;68.40
12901;DHT22;6518;50.930;5.344;2023-08-07T14:50:04;20.00;68.40
12901;DHT22;6518;50.930;5.344;2023-08-07T14:52:31;19.90;68.80
12901;DHT22;6518;50.930;5.344;2023-08-07T14:54:58;20.00;69.10
12901;DHT22;6518;50.930;5.344;2023-08-07T14:57:27;20.10;68.50
12901;DHT22;6518;50.930;5.344;2023-08-07T14:59:54;20.20;68.30
12901;DHT22;6518;50.930;5.344;2023-08-07T15:02:21;20.30;68.50
12901;DHT22;6518;50.930;5.344;2023-08-07T15:04:51;20.40;67.80
12901;DHT22;6518;50.930;5.344;2023-08-07T15:07:18;20.30;67.80
12901;DHT22;6518;50.930;5.344;2023-08-07T15:09:45;20.40;68.60
12901;DHT22;6518;50.930;5.344;2023-08-07T15:12:15;20.40;68.40
12901;DHT22;6518;50.930;5.344;2023-08-07T15:14:42;20.40;68.00
12901;DHT22;6518;50.930;5.344;2023-08-07T15:17:11;20.40;68.20
12901;DHT22;6518;50.930;5.344;2023-08-07T15:19:38;20.30;68.80
12901;DHT22;6518;50.930;5.344;2023-08-07T15:22:06;20.30;68.80
12901;DHT22;6518;50.930;5.344;2023-08-07T15:24:33;20.30;69.20
12901;DHT22;6518;50.930;5.344;2023-08-07T15:27:00;20.40;68.10
12901;DHT22;6518;50.930;5.344;2023-08-07T15:29:27;20.30;67.70
12901;DHT22;6518;50.930;5.344;2023-08-07T15:31:54;20.30;68.90
12901;DHT22;6518;50.930;5.344;2023-08-07T15:34:21;20.40;68.40
12901;DHT22;6518;50.930;5.344;2023-08-07T15:36:48;20.40;68.40
12901;DHT22;6518;50.930;5.344;2023-08-07T15:39:16;20.40;68.60
12901;DHT22;6518;50.930;5.344;2023-08-07T15:41:43;20.40;68.50
12901;DHT22;6518;50.930;5.344;2023-08-07T15:44:10;20.50;93.70
12901;DHT22;6518;50.930;5.344;2023-08-07T15:46:37;20.50;67.60
12901;DHT22;6518;50.930;5.344;2023-08-07T15:49:04;20.40;67.80